Time;durP1;ratioP1;P1;durP2;ratioP2;P2;SDS_P1;SDS_P2;PMS_P1;PMS_P2;Temp;Humidity;BMP_temperature;BMP_pressure;BME280_temperature;BME280_humidity;BME280_pressure;Samples;Min_cycle;Max_cycle;Signal;HPM_P1;HPM_P2
2022/11/11 00:06:47;;;;;;;0.77;0.50;;;;;;;17.09;100.00;102295.72;20479097;28;20039;-92
2022/11/11 00:27:50;;;;;;;0.90;0.45;;;;;;;17.09;100.00;102290.34;20477659;28;20051;-92
2022/11/11 00:38:44;;;;;;;0.90;0.52;;;;;;;17.19;100.00;102314.81;20474323;28;20280;-92
2022/11/11 00:59:31;;;;;;;0.88;0.40;;;;;;;16.72;100.00;102206.56;20474818;28;20043;-92
2022/11/11 01:09:51;;;;;;;1.20;0.73;;;;;;;17.19;100.00;102290.59;20474656;28;20039;-91
2022/11/11 01:20:11;;;;;;;1.13;0.50;;;;;;;17.19;100.00;102274.44;20500095;28;20122;-92
2022/11/11 01:30:32;;;;;;;1.23;0.55;;;;;;;17.19;100.00;102274.44;20473300;28;20043;-91
2022/11/11 01:40:53;;;;;;;0.70;0.45;;;;;;;17.19;100.00;102263.69;20470698;28;20047;-91
2022/11/11 01:51:19;;;;;;;0.82;0.60;;;;;;;17.19;100.00;102257.47;20473196;28;20130;-93
2022/11/11 02:01:39;;;;;;;0.95;0.50;;;;;;;16.97;100.00;102204.97;20486358;28;20055;-91
2022/11/11 02:22:56;;;;;;;1.15;0.60;;;;;;;16.85;100.00;102201.25;20474944;28;20047;-92
2022/11/11 02:33:16;;;;;;;0.68;0.57;;;;;;;17.17;100.00;102275.53;20484660;28;20508;-91
2022/11/11 02:43:36;;;;;;;0.52;0.45;;;;;;;17.17;100.00;102297.91;20483247;28;20052;-92
2022/11/11 02:53:57;;;;;;;1.08;0.60;;;;;;;16.41;100.00;102169.97;20485551;28;20051;-92
2022/11/11 03:04:18;;;;;;;0.55;0.45;;;;;;;17.17;100.00;102292.53;20482371;28;20051;-92
2022/11/11 03:14:38;;;;;;;1.17;0.50;;;;;;;16.83;100.00;102238.16;20483030;28;20407;-92
2022/11/11 03:35:38;;;;;;;0.60;0.55;;;;;;;17.16;100.00;102288.09;20481491;28;20074;-92
2022/11/11 03:46:00;;;;;;;0.40;0.40;;;;;;;17.15;100.00;102301.69;20479821;28;20416;-91
2022/11/11 03:56:20;;;;;;;0.95;0.60;;;;;;;17.03;100.00;102292.53;20465205;28;20255;-91
2022/11/11 04:17:19;;;;;;;0.73;0.57;;;;;;;17.14;100.00;102319.63;20477702;28;20133;-91
2022/11/11 04:27:39;;;;;;;0.82;0.65;;;;;;;17.05;100.00;102318.41;20475925;28;20063;-93
2022/11/11 04:48:37;;;;;;;0.82;0.45;;;;;;;16.82;100.00;102277.63;20476272;28;20047;-91
2022/11/11 04:59:16;;;;;;;1.20;0.90;;;;;;;17.14;100.00;102313.41;20475386;28;20079;-93
2022/11/11 05:09:36;;;;;;;1.25;0.68;;;;;;;17.14;100.00;102321.47;20472824;28;20051;-92
2022/11/11 05:30:34;;;;;;;0.70;0.70;;;;;;;16.71;100.00;102279.25;20472950;28;20051;-91
2022/11/11 05:40:54;;;;;;;1.13;0.70;;;;;;;17.12;100.00;102348.47;20472796;28;20512;-92
2022/11/11 05:51:26;;;;;;;1.40;0.90;;;;;;;17.13;100.00;102357.41;20473304;28;20500;-91
2022/11/11 06:01:47;;;;;;;3.92;1.65;;;;;;;17.16;100.00;102362.59;20483255;28;20541;-91
2022/11/11 06:12:07;;;;;;;5.70;1.90;;;;;;;17.24;100.00;102374.63;20488227;28;20412;-90
2022/11/11 06:33:06;;;;;;;3.63;2.00;;;;;;;17.15;98.54;102345.56;20475140;28;20047;-90
2022/11/11 06:43:27;;;;;;;3.92;1.80;;;;;;;17.38;97.59;102397.13;20475821;28;20087;-91
2022/11/11 06:53:47;;;;;;;2.75;2.10;;;;;;;16.95;96.78;102325.25;20503576;28;20051;-90
2022/11/11 07:04:07;;;;;;;4.65;2.10;;;;;;;17.31;96.62;102390.41;20524023;28;20051;-92
2022/11/11 07:14:27;;;;;;;2.70;1.95;;;;;;;17.45;96.46;102420.00;20478431;28;20048;-90
2022/11/11 07:24:47;;;;;;;3.53;2.00;;;;;;;17.46;96.17;102437.03;20444143;28;20040;-93
2022/11/11 07:35:08;;;;;;;4.57;2.00;;;;;;;17.07;95.97;102375.69;20462093;28;20134;-88
2022/11/11 07:45:28;;;;;;;2.35;1.70;;;;;;;16.90;96.60;102356.97;20480015;28;20055;-95
2022/11/11 07:55:48;;;;;;;2.55;2.10;;;;;;;17.51;99.47;102465.38;20486390;28;20043;-92
2022/11/11 08:06:08;;;;;;;4.22;1.90;;;;;;;17.52;100.00;102475.19;20508496;28;20067;-91
2022/11/11 08:16:28;;;;;;;5.53;2.17;;;;;;;17.46;100.00;102462.13;20468590;28;20051;-92
2022/11/11 08:26:49;;;;;;;3.70;1.95;;;;;;;17.58;100.00;102486.53;20448459;28;20043;-88
2022/11/11 08:37:09;;;;;;;2.75;1.75;;;;;;;17.50;100.00;102484.34;20457710;28;20073;-90
2022/11/11 08:47:29;;;;;;;29.45;4.63;;;;;;;17.55;100.00;102495.69;20448371;28;20050;-86
2022/11/11 08:57:58;;;;;;;5.47;2.00;;;;;;;17.36;100.00;102485.19;20444491;28;20587;-88
2022/11/11 09:08:18;;;;;;;4.75;1.70;;;;;;;17.48;100.00;102523.97;20447761;28;20518;-91
2022/11/11 09:18:38;;;;;;;3.40;1.98;;;;;;;17.45;100.00;102516.03;20457230;28;20055;-86
2022/11/11 09:28:58;;;;;;;3.13;1.90;;;;;;;17.43;100.00;102523.34;20455690;28;20043;-86
2022/11/11 09:39:18;;;;;;;5.53;2.05;;;;;;;17.40;100.00;102551.34;20475028;28;20055;-90
2022/11/11 09:49:51;;;;;;;3.33;1.80;;;;;;;17.02;100.00;102504.25;20467249;28;20051;-89
2022/11/11 10:00:17;;;;;;;3.60;1.95;;;;;;;17.29;100.00;102556.50;20462606;28;20464;-87
2022/11/11 10:10:46;;;;;;;3.13;1.60;;;;;;;17.36;100.00;102560.56;20483665;28;20504;-88
2022/11/11 10:21:14;;;;;;;4.87;1.83;;;;;;;17.09;100.00;102516.38;20474063;28;20056;-88
2022/11/11 10:31:34;;;;;;;1.77;1.38;;;;;;;17.23;100.00;102545.16;20474715;28;20051;-88
2022/11/11 10:41:54;;;;;;;2.85;1.60;;;;;;;17.34;100.00;102573.25;20488935;28;20047;-90
2022/11/11 10:52:19;;;;;;;2.35;1.65;;;;;;;17.31;100.00;102573.44;20463231;28;20126;-89
2022/11/11 11:03:00;;;;;;;3.67;1.63;;;;;;;16.96;100.00;102520.69;20489508;28;20404;-84
2022/11/11 11:13:24;;;;;;;2.72;1.65;;;;;;;17.35;100.00;102575.84;20502023;28;20146;-85
2022/11/11 11:23:45;;;;;;;3.67;1.63;;;;;;;17.42;100.00;102579.03;20474174;28;20043;-87
2022/11/11 11:34:05;;;;;;;3.58;1.52;;;;;;;17.49;100.00;102577.69;20462689;28;20050;-90
2022/11/11 11:44:27;;;;;;;5.28;1.95;;;;;;;17.39;100.00;102550.47;20467121;28;20095;-89
2022/11/11 11:55:16;;;;;;;2.83;1.80;;;;;;;17.40;100.00;102536.03;20467490;28;20059;-87
2022/11/11 12:06:00;;;;;;;2.25;1.60;;;;;;;17.66;100.00;102571.28;20470543;28;20124;-88
2022/11/11 12:16:36;;;;;;;2.33;1.85;;;;;;;17.53;100.00;102535.31;20464922;28;20134;-88
2022/11/11 12:27:03;;;;;;;2.97;1.80;;;;;;;17.73;100.00;102562.84;20466440;28;20408;-87
2022/11/11 12:37:48;;;;;;;5.88;1.88;;;;;;;17.68;99.96;102539.75;20476631;28;20039;-87
2022/11/11 12:48:30;;;;;;;4.87;2.10;;;;;;;17.78;99.98;102555.31;20463259;28;20137;-90
2022/11/11 12:59:22;;;;;;;3.95;1.98;;;;;;;17.77;100.00;102576.03;20473532;28;20054;-93
2022/11/11 13:09:58;;;;;;;2.78;1.70;;;;;;;17.51;100.00;102519.22;20471450;28;20300;-93
2022/11/11 13:20:41;;;;;;;3.42;1.67;;;;;;;17.73;100.00;102569.09;20458862;28;20051;-93
2022/11/11 13:31:08;;;;;;;4.80;1.98;;;;;;;17.71;100.00;102580.91;20483300;28;20054;-92
2022/11/11 13:41:31;;;;;;;1.98;1.67;;;;;;;17.69;100.00;102587.25;20454096;28;20067;-91
2022/11/11 13:52:03;;;;;;;2.60;1.70;;;;;;;17.69;100.00;102581.88;20480669;28;20074;-90
2022/11/11 14:02:25;;;;;;;2.05;1.42;;;;;;;17.69;100.00;102589.09;20479127;28;20052;-91
2022/11/11 14:12:52;;;;;;;4.30;1.75;;;;;;;17.68;100.00;102593.63;20465751;28;20051;-93
2022/11/11 14:23:34;;;;;;;3.30;1.83;;;;;;;17.71;100.00;102600.66;20455177;28;20252;-90
2022/11/11 14:34:17;;;;;;;1.88;1.75;;;;;;;17.69;100.00;102600.72;20436885;28;20043;-87
2022/11/11 14:44:38;;;;;;;3.42;2.28;;;;;;;17.65;100.00;102604.56;20448708;28;20062;-91
2022/11/11 14:55:02;;;;;;;2.28;1.88;;;;;;;17.60;100.00;102603.09;20440125;28;20056;-90
2022/11/11 15:05:45;;;;;;;2.25;1.50;;;;;;;17.56;100.00;102604.25;20462558;28;20492;-89
2022/11/11 15:16:22;;;;;;;1.95;1.48;;;;;;;17.52;100.00;102617.91;20466563;28;20059;-88
2022/11/11 15:26:53;;;;;;;2.50;1.30;;;;;;;17.27;100.00;102583.50;20494435;28;20046;-87
2022/11/11 15:37:17;;;;;;;2.80;1.52;;;;;;;17.47;100.00;102632.63;20472062;28;20047;-89
2022/11/11 15:47:37;;;;;;;2.80;1.20;;;;;;;17.46;100.00;102636.28;20464514;28;20051;-87
2022/11/11 15:58:28;;;;;;;3.90;1.45;;;;;;;17.44;100.00;102641.72;20472440;28;20055;-88
2022/11/11 16:08:51;;;;;;;1.80;1.38;;;;;;;17.21;100.00;102611.63;20460460;28;20059;-88
2022/11/11 16:19:32;;;;;;;3.38;1.50;;;;;;;17.40;100.00;102659.88;20454318;28;20448;-87
2022/11/11 16:29:52;;;;;;;2.13;1.30;;;;;;;17.36;100.00;102661.03;20441016;28;20127;-91
2022/11/11 16:40:25;;;;;;;1.75;1.40;;;;;;;17.40;100.00;102685.97;20462927;28;20145;-89
2022/11/11 16:50:58;;;;;;;1.70;1.33;;;;;;;17.32;100.00;102661.31;20441902;28;20611;-88
2022/11/11 17:01:18;;;;;;;1.17;1.05;;;;;;;16.93;100.00;102598.91;20450597;28;20043;-89
2022/11/11 17:11:38;;;;;;;1.58;1.42;;;;;;;17.37;100.00;102686.13;20481280;28;20052;-88
2022/11/11 17:22:10;;;;;;;2.08;1.50;;;;;;;17.29;100.00;102677.66;20455641;28;21242;-88
2022/11/11 17:32:30;;;;;;;2.70;1.38;;;;;;;17.35;100.00;102693.44;20440133;28;20054;-87
2022/11/11 17:42:51;;;;;;;1.90;1.42;;;;;;;17.34;100.00;102687.16;20442653;28;20440;-88
2022/11/11 17:53:11;;;;;;;2.20;1.33;;;;;;;17.14;100.00;102658.72;20441848;28;20055;-89
2022/11/11 18:03:36;;;;;;;1.95;1.50;;;;;;;17.16;100.00;102666.72;20455223;28;20051;-87
2022/11/11 18:13:56;;;;;;;1.50;1.40;;;;;;;17.32;100.00;102690.91;20447695;28;20067;-89
2022/11/11 18:24:15;;;;;;;1.50;1.20;;;;;;;17.31;100.00;102698.13;20463569;28;20047;-88
2022/11/11 18:34:36;;;;;;;1.42;1.33;;;;;;;17.24;100.00;102675.19;20451749;28;20063;-89
2022/11/11 18:44:56;;;;;;;1.60;1.20;;;;;;;17.30;100.00;102687.44;20477299;28;20039;-90
2022/11/11 18:55:16;;;;;;;1.25;1.15;;;;;;;17.29;100.00;102672.25;20480423;28;20051;-89
2022/11/11 19:05:36;;;;;;;1.23;1.13;;;;;;;17.29;100.00;102677.66;20482303;28;20046;-91
2022/11/11 19:16:10;;;;;;;1.50;1.17;;;;;;;16.48;100.00;102521.63;20446398;28;20071;-88
2022/11/11 19:26:30;;;;;;;1.10;0.90;;;;;;;17.27;100.00;102668.78;20456532;28;20079;-88
2022/11/11 19:36:50;;;;;;;1.55;1.27;;;;;;;16.96;100.00;102634.56;20475818;28;20172;-86
2022/11/11 19:47:11;;;;;;;1.40;1.30;;;;;;;17.25;100.00;102685.91;20496644;28;20058;-90
2022/11/11 19:57:32;;;;;;;1.23;1.10;;;;;;;16.84;100.00;102637.97;20472205;28;20109;-88
2022/11/11 20:07:54;;;;;;;1.58;0.90;;;;;;;17.16;100.00;102705.25;20504628;28;20043;-88
2022/11/11 20:18:15;;;;;;;0.93;0.90;;;;;;;17.01;100.00;102676.53;20507438;28;20098;-89
2022/11/11 20:28:35;;;;;;;1.67;1.02;;;;;;;17.05;100.00;102691.53;20513520;28;20050;-89
2022/11/11 20:38:55;;;;;;;1.08;0.98;;;;;;;17.23;100.00;102736.25;20555873;28;20051;-88
2022/11/11 20:49:15;;;;;;;1.13;1.02;;;;;;;17.23;100.00;102746.16;20555034;28;20086;-89
2022/11/11 20:59:35;;;;;;;1.58;1.00;;;;;;;17.14;100.00;102744.81;20554934;28;20047;-90
2022/11/11 21:09:55;;;;;;;0.90;0.90;;;;;;;17.21;100.00;102750.75;20536607;28;20054;-89
2022/11/11 21:20:15;;;;;;;0.85;0.80;;;;;;;17.21;100.00;102754.28;20474361;28;20051;-89
2022/11/11 21:30:35;;;;;;;0.98;0.80;;;;;;;17.10;100.00;102733.38;20472892;28;20047;-88
2022/11/11 21:41:14;;;;;;;1.02;0.88;;;;;;;17.19;100.00;102753.50;20471506;28;20051;-88
2022/11/11 21:51:35;;;;;;;1.00;0.90;;;;;;;17.20;100.00;102754.41;20473281;28;20051;-90
2022/11/11 22:01:55;;;;;;;0.90;0.90;;;;;;;17.19;100.00;102758.91;20472183;28;20047;-88
2022/11/11 22:12:14;;;;;;;1.25;0.93;;;;;;;17.19;100.00;102768.81;20480925;28;20047;-89
2022/11/11 22:22:35;;;;;;;0.70;0.70;;;;;;;16.60;100.00;102667.97;20487175;28;20115;-88
2022/11/11 22:32:55;;;;;;;0.73;0.73;;;;;;;17.08;100.00;102758.63;20485316;28;20059;-89
2022/11/11 22:43:15;;;;;;;1.15;1.02;;;;;;;16.74;100.00;102701.28;20486029;28;20543;-89
2022/11/11 22:53:55;;;;;;;0.95;0.80;;;;;;;17.17;100.00;102787.72;20484747;28;20484;-89
2022/11/11 23:04:16;;;;;;;1.90;0.85;;;;;;;17.17;100.00;102798.47;20484177;28;20059;-90
2022/11/11 23:14:36;;;;;;;0.70;0.70;;;;;;;17.17;100.00;102803.88;20482076;28;20047;-89
2022/11/11 23:24:56;;;;;;;0.80;0.80;;;;;;;17.17;100.00;102803.00;20482612;28;20043;-89
2022/11/11 23:35:16;;;;;;;0.77;0.60;;;;;;;17.04;100.00;102786.66;20481952;28;20059;-89
2022/11/11 23:45:38;;;;;;;0.90;0.70;;;;;;;17.17;100.00;102787.72;20480138;28;20532;-89
2022/11/11 23:55:58;;;;;;;0.80;0.80;;;;;;;17.15;100.00;102795.00;20480374;28;20039;-88
